Tenstrike, Minnesota
Current Conditions -  °F | °C
As of 10:53 AM on Saturday 25 Oct 2014 (Local Time) from KBJI Reporting Station
Clear Clear  
Wind Chill: 43°   Ceiling: Unl
Heat Index: 49°   Visibility: 10mi
Dew Point: 32°   Wind: 17mph
Humidity: 51%   Direction: 290°WNW
Pressure: 30.01"   Gusts: NA
Location:  47.66°N, 94.67°W
Report Text: KBJI 251553Z AUTO 29015KT 10SM CLR 10/00 A3001 RMK AO2 T00951001
Loading
Personal Weather Stations






























Interactive Weather Map
Tropical Storm Tracking
New forecast layout! Learn more

10-Day Weather Forecast

Advertisements
Track Severe Weather on mobile